sensor_id;sensor_type;location;lat;lon;timestamp;pressure;altitude;pressure_sealevel;temperature;humidity
72308;BME280;60257;42.638;23.376;2023-05-02T00:01:08;94946.22;;;11.50;64.55
72308;BME280;60257;42.638;23.376;2023-05-02T00:03:33;94935.09;;;11.47;64.38
72308;BME280;60257;42.638;23.376;2023-05-02T00:05:59;94938.31;;;11.49;64.45
72308;BME280;60257;42.638;23.376;2023-05-02T00:08:25;94940.38;;;11.52;64.47
72308;BME280;60257;42.638;23.376;2023-05-02T00:10:50;94943.34;;;11.47;64.76
72308;BME280;60257;42.638;23.376;2023-05-02T00:13:16;94936.59;;;11.44;64.56
72308;BME280;60257;42.638;23.376;2023-05-02T00:15:41;94937.88;;;11.35;64.50
72308;BME280;60257;42.638;23.376;2023-05-02T00:18:07;94943.47;;;11.38;65.06
72308;BME280;60257;42.638;23.376;2023-05-02T00:20:32;94939.47;;;11.36;65.02
72308;BME280;60257;42.638;23.376;2023-05-02T00:22:58;94946.00;;;11.43;65.01
72308;BME280;60257;42.638;23.376;2023-05-02T00:25:23;94935.22;;;11.38;64.96
72308;BME280;60257;42.638;23.376;2023-05-02T00:27:49;94951.69;;;11.50;64.99
72308;BME280;60257;42.638;23.376;2023-05-02T00:30:16;94949.63;;;11.47;65.20
72308;BME280;60257;42.638;23.376;2023-05-02T00:32:42;94952.03;;;11.49;65.24
72308;BME280;60257;42.638;23.376;2023-05-02T00:35:08;94951.16;;;11.45;65.35
72308;BME280;60257;42.638;23.376;2023-05-02T00:37:34;94955.47;;;11.46;65.41
72308;BME280;60257;42.638;23.376;2023-05-02T00:40:00;94951.94;;;11.45;65.65
72308;BME280;60257;42.638;23.376;2023-05-02T00:42:25;94951.69;;;11.38;66.02
72308;BME280;60257;42.638;23.376;2023-05-02T00:44:53;94954.22;;;11.31;66.02
72308;BME280;60257;42.638;23.376;2023-05-02T00:47:19;94969.34;;;11.37;66.15
72308;BME280;60257;42.638;23.376;2023-05-02T00:49:45;94956.28;;;11.34;66.02
72308;BME280;60257;42.638;23.376;2023-05-02T00:52:10;94962.47;;;11.43;66.03
72308;BME280;60257;42.638;23.376;2023-05-02T00:54:37;94955.16;;;11.35;66.30
72308;BME280;60257;42.638;23.376;2023-05-02T00:57:06;94964.06;;;11.32;66.56
72308;BME280;60257;42.638;23.376;2023-05-02T00:59:34;94967.94;;;11.31;67.00
72308;BME280;60257;42.638;23.376;2023-05-02T01:02:21;94966.47;;;11.34;66.94
72308;BME280;60257;42.638;23.376;2023-05-02T01:05:01;94967.03;;;11.39;66.76
72308;BME280;60257;42.638;23.376;2023-05-02T01:11:04;94959.59;;;11.40;66.74
72308;BME280;60257;42.638;23.376;2023-05-02T01:13:34;94955.59;;;11.25;67.14
72308;BME280;60257;42.638;23.376;2023-05-02T01:16:01;94971.41;;;11.28;67.13
72308;BME280;60257;42.638;23.376;2023-05-02T01:18:31;94973.22;;;11.24;67.30
72308;BME280;60257;42.638;23.376;2023-05-02T01:21:00;94965.22;;;11.19;67.37
72308;BME280;60257;42.638;23.376;2023-05-02T01:23:29;94966.25;;;11.14;67.53
72308;BME280;60257;42.638;23.376;2023-05-02T01:26:14;94955.97;;;11.11;67.80
72308;BME280;60257;42.638;23.376;2023-05-02T01:28:58;94945.31;;;11.10;67.88
72308;BME280;60257;42.638;23.376;2023-05-02T01:31:25;94954.81;;;11.12;67.68
72308;BME280;60257;42.638;23.376;2023-05-02T01:33:53;94942.56;;;11.10;67.67
72308;BME280;60257;42.638;23.376;2023-05-02T01:36:22;94948.06;;;11.10;67.76
72308;BME280;60257;42.638;23.376;2023-05-02T01:38:51;94946.03;;;11.07;67.97
72308;BME280;60257;42.638;23.376;2023-05-02T01:41:20;94955.72;;;11.04;68.18
72308;BME280;60257;42.638;23.376;2023-05-02T01:43:47;94964.19;;;10.99;68.28
72308;BME280;60257;42.638;23.376;2023-05-02T01:46:13;94957.06;;;10.86;68.57
72308;BME280;60257;42.638;23.376;2023-05-02T01:48:41;94968.06;;;10.86;69.03
72308;BME280;60257;42.638;23.376;2023-05-02T01:51:10;94964.97;;;10.88;69.06
72308;BME280;60257;42.638;23.376;2023-05-02T01:53:37;94971.03;;;10.81;69.17
72308;BME280;60257;42.638;23.376;2023-05-02T01:56:04;94969.28;;;10.76;69.38
72308;BME280;60257;42.638;23.376;2023-05-02T01:58:31;94973.06;;;10.72;69.61
72308;BME280;60257;42.638;23.376;2023-05-02T02:00:59;94967.47;;;10.68;69.51
72308;BME280;60257;42.638;23.376;2023-05-02T02:03:28;94959.78;;;10.62;69.78
72308;BME280;60257;42.638;23.376;2023-05-02T02:05:55;94960.81;;;10.57;69.89
72308;BME280;60257;42.638;23.376;2023-05-02T02:08:23;94957.81;;;10.50;70.31
72308;BME280;60257;42.638;23.376;2023-05-02T02:10:53;94952.44;;;10.41;70.49
72308;BME280;60257;42.638;23.376;2023-05-02T02:13:31;94958.38;;;10.44;70.31
72308;BME280;60257;42.638;23.376;2023-05-02T02:16:00;94956.66;;;10.39;70.59
72308;BME280;60257;42.638;23.376;2023-05-02T02:18:29;94951.25;;;10.30;70.86
72308;BME280;60257;42.638;23.376;2023-05-02T02:20:58;94966.13;;;10.29;71.18
72308;BME280;60257;42.638;23.376;2023-05-02T02:23:25;94963.72;;;10.28;71.19
72308;BME280;60257;42.638;23.376;2023-05-02T02:25:53;94963.72;;;10.28;71.02
72308;BME280;60257;42.638;23.376;2023-05-02T02:28:20;94962.91;;;10.27;71.09
72308;BME280;60257;42.638;23.376;2023-05-02T02:30:45;94960.72;;;10.21;71.47
72308;BME280;60257;42.638;23.376;2023-05-02T02:33:11;94958.63;;;10.18;71.49
72308;BME280;60257;42.638;23.376;2023-05-02T02:35:40;94966.53;;;10.19;71.36
72308;BME280;60257;42.638;23.376;2023-05-02T02:38:28;94955.75;;;10.14;71.51
72308;BME280;60257;42.638;23.376;2023-05-02T02:46:26;94961.09;;;10.11;71.46
72308;BME280;60257;42.638;23.376;2023-05-02T02:49:12;94963.03;;;10.10;71.58
72308;BME280;60257;42.638;23.376;2023-05-02T02:54:38;94965.44;;;10.12;71.73
72308;BME280;60257;42.638;23.376;2023-05-02T02:57:14;94969.47;;;10.14;71.82
72308;BME280;60257;42.638;23.376;2023-05-02T02:59:47;94967.06;;;10.13;71.58
72308;BME280;60257;42.638;23.376;2023-05-02T03:02:16;94967.50;;;10.15;71.55
72308;BME280;60257;42.638;23.376;2023-05-02T03:04:45;94976.06;;;10.13;71.56
72308;BME280;60257;42.638;23.376;2023-05-02T03:07:20;94974.00;;;10.10;71.92
72308;BME280;60257;42.638;23.376;2023-05-02T03:10:08;94971.47;;;10.05;71.67
72308;BME280;60257;42.638;23.376;2023-05-02T03:12:33;94972.28;;;10.06;71.85
72308;BME280;60257;42.638;23.376;2023-05-02T03:17:35;94991.31;;;10.02;72.45
72308;BME280;60257;42.638;23.376;2023-05-02T03:20:01;94985.34;;;10.00;72.45
72308;BME280;60257;42.638;23.376;2023-05-02T03:22:28;94987.28;;;9.99;72.66
72308;BME280;60257;42.638;23.376;2023-05-02T03:24:54;94993.56;;;10.00;72.68
72308;BME280;60257;42.638;23.376;2023-05-02T03:27:19;94995.50;;;9.99;72.50
72308;BME280;60257;42.638;23.376;2023-05-02T03:29:45;94986.22;;;9.92;72.51
72308;BME280;60257;42.638;23.376;2023-05-02T03:32:10;94994.25;;;9.97;72.53
72308;BME280;60257;42.638;23.376;2023-05-02T03:34:36;94982.56;;;9.88;72.57
72308;BME280;60257;42.638;23.376;2023-05-02T03:37:02;95002.47;;;9.97;72.89
72308;BME280;60257;42.638;23.376;2023-05-02T03:39:27;94995.50;;;9.99;72.94
72308;BME280;60257;42.638;23.376;2023-05-02T03:41:52;94992.78;;;9.99;73.07
72308;BME280;60257;42.638;23.376;2023-05-02T03:44:18;95003.06;;;10.02;72.81
72308;BME280;60257;42.638;23.376;2023-05-02T03:46:44;95006.63;;;10.03;73.05
72308;BME280;60257;42.638;23.376;2023-05-02T03:49:10;95004.00;;;10.07;72.68
72308;BME280;60257;42.638;23.376;2023-05-02T03:51:36;95008.97;;;10.13;72.50
72308;BME280;60257;42.638;23.376;2023-05-02T03:54:01;95007.97;;;10.18;72.59
72308;BME280;60257;42.638;23.376;2023-05-02T03:56:27;95007.63;;;10.19;72.33
72308;BME280;60257;42.638;23.376;2023-05-02T03:58:52;95001.81;;;10.21;72.44
72308;BME280;60257;42.638;23.376;2023-05-02T04:01:18;95009.50;;;10.27;72.14
72308;BME280;60257;42.638;23.376;2023-05-02T04:03:43;95000.81;;;10.25;72.39
72308;BME280;60257;42.638;23.376;2023-05-02T04:06:09;95005.31;;;10.42;71.71
72308;BME280;60257;42.638;23.376;2023-05-02T04:08:35;95006.13;;;10.43;71.73
72308;BME280;60257;42.638;23.376;2023-05-02T04:11:01;95007.41;;;10.45;71.63
72308;BME280;60257;42.638;23.376;2023-05-02T04:13:26;95011.72;;;10.46;71.80
72308;BME280;60257;42.638;23.376;2023-05-02T04:15:53;95011.19;;;10.53;71.41
72308;BME280;60257;42.638;23.376;2023-05-02T04:18:19;95005.81;;;10.56;71.56
72308;BME280;60257;42.638;23.376;2023-05-02T04:20:44;95003.88;;;10.57;71.39
72308;BME280;60257;42.638;23.376;2023-05-02T04:23:10;95010.09;;;10.66;70.88
72308;BME280;60257;42.638;23.376;2023-05-02T04:25:35;95007.59;;;10.73;70.69
72308;BME280;60257;42.638;23.376;2023-05-02T04:28:01;95010.81;;;10.75;70.70
72308;BME280;60257;42.638;23.376;2023-05-02T04:30:28;95009.44;;;10.81;70.35
72308;BME280;60257;42.638;23.376;2023-05-02T04:32:53;95018.47;;;10.94;69.52
72308;BME280;60257;42.638;23.376;2023-05-02T04:35:19;95016.44;;;11.03;69.28
72308;BME280;60257;42.638;23.376;2023-05-02T04:37:44;95021.16;;;11.14;67.97
72308;BME280;60257;42.638;23.376;2023-05-02T04:40:10;95020.25;;;11.23;67.98
72308;BME280;60257;42.638;23.376;2023-05-02T04:42:36;95018.66;;;11.22;67.62
72308;BME280;60257;42.638;23.376;2023-05-02T04:45:02;95019.22;;;11.27;66.92
72308;BME280;60257;42.638;23.376;2023-05-02T04:47:27;95023.22;;;11.30;66.54
72308;BME280;60257;42.638;23.376;2023-05-02T04:49:53;95012.59;;;11.28;66.28
72308;BME280;60257;42.638;23.376;2023-05-02T04:52:18;95022.66;;;11.36;66.27
72308;BME280;60257;42.638;23.376;2023-05-02T04:54:44;95012.25;;;11.42;66.08
72308;BME280;60257;42.638;23.376;2023-05-02T04:57:09;95017.16;;;11.48;65.21
72308;BME280;60257;42.638;23.376;2023-05-02T04:59:35;95010.28;;;11.54;64.96
72308;BME280;60257;42.638;23.376;2023-05-02T05:02:01;95024.91;;;11.71;65.21
72308;BME280;60257;42.638;23.376;2023-05-02T05:04:27;95014.97;;;11.78;64.52
72308;BME280;60257;42.638;23.376;2023-05-02T05:06:52;95023.66;;;11.92;64.29
72308;BME280;60257;42.638;23.376;2023-05-02T05:09:18;95019.16;;;12.00;63.37
72308;BME280;60257;42.638;23.376;2023-05-02T05:11:44;94992.91;;;11.75;62.94
72308;BME280;60257;42.638;23.376;2023-05-02T05:14:10;95013.44;;;11.93;62.67
72308;BME280;60257;42.638;23.376;2023-05-02T05:16:36;95016.41;;;12.00;63.11
72308;BME280;60257;42.638;23.376;2023-05-02T05:19:02;95019.41;;;12.07;62.96
72308;BME280;60257;42.638;23.376;2023-05-02T05:21:28;95020.41;;;12.15;62.84
72308;BME280;60257;42.638;23.376;2023-05-02T05:23:53;95018.56;;;12.19;62.58
72308;BME280;60257;42.638;23.376;2023-05-02T05:26:19;95029.66;;;12.22;62.27
72308;BME280;60257;42.638;23.376;2023-05-02T05:28:45;95023.31;;;12.34;61.55
72308;BME280;60257;42.638;23.376;2023-05-02T05:31:12;95027.41;;;12.40;61.11
72308;BME280;60257;42.638;23.376;2023-05-02T05:33:39;95010.81;;;12.37;61.34
72308;BME280;60257;42.638;23.376;2023-05-02T05:36:06;95025.31;;;12.49;61.12
72308;BME280;60257;42.638;23.376;2023-05-02T05:38:32;95019.47;;;12.51;60.59
72308;BME280;60257;42.638;23.376;2023-05-02T05:40:57;95023.38;;;12.50;60.38
72308;BME280;60257;42.638;23.376;2023-05-02T05:43:22;95030.56;;;12.54;60.16
72308;BME280;60257;42.638;23.376;2023-05-02T05:45:51;95014.91;;;12.43;60.26
72308;BME280;60257;42.638;23.376;2023-05-02T05:48:16;95035.47;;;12.61;60.33
72308;BME280;60257;42.638;23.376;2023-05-02T05:50:42;95030.53;;;12.66;59.44
72308;BME280;60257;42.638;23.376;2023-05-02T05:53:07;95031.16;;;12.76;59.64
72308;BME280;60257;42.638;23.376;2023-05-02T05:55:33;95027.97;;;12.73;59.89
72308;BME280;60257;42.638;23.376;2023-05-02T05:57:58;95021.91;;;12.68;59.49
72308;BME280;60257;42.638;23.376;2023-05-02T06:00:24;95044.22;;;12.79;59.76
72308;BME280;60257;42.638;23.376;2023-05-02T06:02:49;95037.66;;;12.83;58.71
72308;BME280;60257;42.638;23.376;2023-05-02T06:05:15;95033.03;;;12.87;58.46
72308;BME280;60257;42.638;23.376;2023-05-02T06:07:41;95032.34;;;12.90;58.84
72308;BME280;60257;42.638;23.376;2023-05-02T06:10:09;95042.13;;;13.03;57.49
72308;BME280;60257;42.638;23.376;2023-05-02T06:12:35;95028.09;;;13.08;57.67
72308;BME280;60257;42.638;23.376;2023-05-02T06:15:00;95040.69;;;13.22;57.44
72308;BME280;60257;42.638;23.376;2023-05-02T06:17:26;95040.41;;;13.27;57.44
72308;BME280;60257;42.638;23.376;2023-05-02T06:19:51;95041.03;;;13.36;56.59
72308;BME280;60257;42.638;23.376;2023-05-02T06:22:16;95030.38;;;13.34;56.45
72308;BME280;60257;42.638;23.376;2023-05-02T06:24:42;95016.25;;;13.36;56.45
72308;BME280;60257;42.638;23.376;2023-05-02T06:27:07;95036.31;;;13.52;55.65
72308;BME280;60257;42.638;23.376;2023-05-02T06:29:33;95028.56;;;13.58;56.00
72308;BME280;60257;42.638;23.376;2023-05-02T06:31:58;95029.47;;;13.62;55.53
72308;BME280;60257;42.638;23.376;2023-05-02T06:34:24;95029.56;;;13.65;55.35
72308;BME280;60257;42.638;23.376;2023-05-02T06:36:53;95039.53;;;13.70;54.64
72308;BME280;60257;42.638;23.376;2023-05-02T06:39:20;95024.31;;;13.76;54.29
72308;BME280;60257;42.638;23.376;2023-05-02T06:41:46;95026.31;;;13.79;54.19
72308;BME280;60257;42.638;23.376;2023-05-02T06:44:12;95029.19;;;13.82;53.88
72308;BME280;60257;42.638;23.376;2023-05-02T06:46:38;95034.56;;;13.95;54.34
72308;BME280;60257;42.638;23.376;2023-05-02T06:49:03;95023.97;;;13.97;53.77
72308;BME280;60257;42.638;23.376;2023-05-02T06:51:29;95025.75;;;14.05;53.95
72308;BME280;60257;42.638;23.376;2023-05-02T06:53:55;95025.09;;;14.11;52.92
72308;BME280;60257;42.638;23.376;2023-05-02T06:56:22;95019.13;;;14.09;52.50
72308;BME280;60257;42.638;23.376;2023-05-02T06:58:49;95026.34;;;14.14;53.01
72308;BME280;60257;42.638;23.376;2023-05-02T07:01:15;95015.81;;;14.19;52.38
72308;BME280;60257;42.638;23.376;2023-05-02T07:03:41;95015.97;;;14.26;51.48
72308;BME280;60257;42.638;23.376;2023-05-02T07:06:06;95017.22;;;14.29;51.54
72308;BME280;60257;42.638;23.376;2023-05-02T07:08:35;95004.22;;;14.30;50.75
72308;BME280;60257;42.638;23.376;2023-05-02T07:11:01;95020.81;;;14.33;50.29
72308;BME280;60257;42.638;23.376;2023-05-02T07:13:27;95015.69;;;14.32;50.19
72308;BME280;60257;42.638;23.376;2023-05-02T07:15:52;95023.97;;;14.32;50.23
72308;BME280;60257;42.638;23.376;2023-05-02T07:18:18;95030.19;;;14.44;51.08
72308;BME280;60257;42.638;23.376;2023-05-02T07:20:43;95024.44;;;14.53;50.54
72308;BME280;60257;42.638;23.376;2023-05-02T07:23:09;95024.22;;;14.61;50.73
72308;BME280;60257;42.638;23.376;2023-05-02T07:25:34;95029.13;;;14.72;50.06
72308;BME280;60257;42.638;23.376;2023-05-02T07:28:01;95024.41;;;14.72;50.85
72308;BME280;60257;42.638;23.376;2023-05-02T07:30:26;95024.16;;;14.77;49.27
72308;BME280;60257;42.638;23.376;2023-05-02T07:32:52;95030.16;;;14.83;49.21
72308;BME280;60257;42.638;23.376;2023-05-02T07:35:17;95029.13;;;14.91;49.12
72308;BME280;60257;42.638;23.376;2023-05-02T07:37:43;95014.59;;;14.94;48.68
72308;BME280;60257;42.638;23.376;2023-05-02T07:40:08;95017.06;;;14.99;48.43
72308;BME280;60257;42.638;23.376;2023-05-02T07:42:34;95028.31;;;15.10;48.22
72308;BME280;60257;42.638;23.376;2023-05-02T07:45:00;95026.97;;;15.23;48.14
72308;BME280;60257;42.638;23.376;2023-05-02T07:47:26;95018.69;;;15.23;47.59
72308;BME280;60257;42.638;23.376;2023-05-02T07:49:53;95017.19;;;15.29;47.98
72308;BME280;60257;42.638;23.376;2023-05-02T07:52:19;95020.75;;;15.29;47.87
72308;BME280;60257;42.638;23.376;2023-05-02T07:54:47;95032.19;;;15.28;48.52
72308;BME280;60257;42.638;23.376;2023-05-02T07:57:14;95019.00;;;15.40;47.66
72308;BME280;60257;42.638;23.376;2023-05-02T07:59:39;95018.69;;;15.46;47.38
72308;BME280;60257;42.638;23.376;2023-05-02T08:02:05;95012.13;;;15.54;47.60
72308;BME280;60257;42.638;23.376;2023-05-02T08:04:31;95021.34;;;15.61;47.65
72308;BME280;60257;42.638;23.376;2023-05-02T08:06:56;95008.09;;;15.74;47.69
72308;BME280;60257;42.638;23.376;2023-05-02T08:09:22;95013.09;;;15.91;46.88
72308;BME280;60257;42.638;23.376;2023-05-02T08:11:47;95016.31;;;15.93;45.89
72308;BME280;60257;42.638;23.376;2023-05-02T08:14:14;95026.75;;;15.81;46.63
72308;BME280;60257;42.638;23.376;2023-05-02T08:16:40;95021.72;;;15.86;46.19
72308;BME280;60257;42.638;23.376;2023-05-02T08:19:06;95017.94;;;15.98;46.52
72308;BME280;60257;42.638;23.376;2023-05-02T08:21:31;95003.97;;;15.87;45.56
72308;BME280;60257;42.638;23.376;2023-05-02T08:23:57;95018.75;;;15.98;46.63
72308;BME280;60257;42.638;23.376;2023-05-02T08:26:23;95007.31;;;16.00;46.71
72308;BME280;60257;42.638;23.376;2023-05-02T08:28:52;95014.22;;;16.13;46.96
72308;BME280;60257;42.638;23.376;2023-05-02T08:31:18;95009.66;;;16.28;46.83
72308;BME280;60257;42.638;23.376;2023-05-02T08:33:44;95015.78;;;16.40;45.73
72308;BME280;60257;42.638;23.376;2023-05-02T08:36:18;95015.38;;;16.42;45.91
72308;BME280;60257;42.638;23.376;2023-05-02T08:38:45;95011.88;;;16.45;45.25
72308;BME280;60257;42.638;23.376;2023-05-02T08:41:15;95013.13;;;16.47;44.57
72308;BME280;60257;42.638;23.376;2023-05-02T08:43:47;95014.22;;;16.43;44.08
72308;BME280;60257;42.638;23.376;2023-05-02T08:46:14;95019.09;;;16.53;43.83
72308;BME280;60257;42.638;23.376;2023-05-02T08:48:42;95010.88;;;16.60;44.42
72308;BME280;60257;42.638;23.376;2023-05-02T08:51:12;94996.69;;;16.62;43.34
72308;BME280;60257;42.638;23.376;2023-05-02T08:53:39;95003.31;;;16.57;43.48
72308;BME280;60257;42.638;23.376;2023-05-02T08:56:09;95018.09;;;16.65;42.80
72308;BME280;60257;42.638;23.376;2023-05-02T08:58:37;94996.50;;;16.77;43.45
72308;BME280;60257;42.638;23.376;2023-05-02T09:01:09;94992.69;;;16.92;44.32
72308;BME280;60257;42.638;23.376;2023-05-02T09:03:35;95000.00;;;17.11;43.80
72308;BME280;60257;42.638;23.376;2023-05-02T09:06:10;94980.72;;;17.18;42.11
72308;BME280;60257;42.638;23.376;2023-05-02T09:08:40;94988.41;;;17.39;42.35
72308;BME280;60257;42.638;23.376;2023-05-02T09:11:07;94985.75;;;17.50;42.02
72308;BME280;60257;42.638;23.376;2023-05-02T09:13:40;94983.81;;;17.57;41.52
72308;BME280;60257;42.638;23.376;2023-05-02T09:16:07;94973.06;;;17.49;41.12
72308;BME280;60257;42.638;23.376;2023-05-02T09:18:40;94976.41;;;17.28;41.82
72308;BME280;60257;42.638;23.376;2023-05-02T09:21:07;94978.47;;;17.35;41.59
72308;BME280;60257;42.638;23.376;2023-05-02T09:25:59;94982.97;;;17.50;41.65
72308;BME280;60257;42.638;23.376;2023-05-02T09:31:09;94969.50;;;17.48;39.98
72308;BME280;60257;42.638;23.376;2023-05-02T09:33:36;94973.81;;;17.46;40.49
72308;BME280;60257;42.638;23.376;2023-05-02T09:36:03;94969.44;;;17.41;39.97
72308;BME280;60257;42.638;23.376;2023-05-02T09:38:28;94974.13;;;17.37;40.31
72308;BME280;60257;42.638;23.376;2023-05-02T09:40:54;94976.81;;;17.26;39.06
72308;BME280;60257;42.638;23.376;2023-05-02T09:43:21;94966.13;;;17.25;40.19
72308;BME280;60257;42.638;23.376;2023-05-02T09:46:02;94959.94;;;17.46;41.02
72308;BME280;60257;42.638;23.376;2023-05-02T09:48:30;94956.88;;;17.58;40.82
72308;BME280;60257;42.638;23.376;2023-05-02T09:50:56;94953.41;;;17.64;40.83
72308;BME280;60257;42.638;23.376;2023-05-02T09:53:26;94960.59;;;17.73;40.81
72308;BME280;60257;42.638;23.376;2023-05-02T09:56:04;94958.72;;;17.91;40.16
72308;BME280;60257;42.638;23.376;2023-05-02T09:58:29;94964.69;;;17.96;38.84
72308;BME280;60257;42.638;23.376;2023-05-02T10:00:56;94956.78;;;17.95;38.13
72308;BME280;60257;42.638;23.376;2023-05-02T10:03:24;94954.81;;;17.99;39.43
72308;BME280;60257;42.638;23.376;2023-05-02T10:05:51;94951.72;;;18.11;38.95
72308;BME280;60257;42.638;23.376;2023-05-02T10:08:19;94948.19;;;18.18;38.16
72308;BME280;60257;42.638;23.376;2023-05-02T10:10:52;94956.56;;;18.25;38.13
72308;BME280;60257;42.638;23.376;2023-05-02T10:13:19;94939.47;;;18.19;38.62
72308;BME280;60257;42.638;23.376;2023-05-02T10:15:48;94939.94;;;18.32;37.95
72308;BME280;60257;42.638;23.376;2023-05-02T10:18:20;94944.75;;;18.45;37.68
72308;BME280;60257;42.638;23.376;2023-05-02T10:21:00;94927.66;;;18.43;37.50
72308;BME280;60257;42.638;23.376;2023-05-02T10:23:29;94945.19;;;18.55;36.93
72308;BME280;60257;42.638;23.376;2023-05-02T10:25:58;94945.22;;;18.62;36.90
72308;BME280;60257;42.638;23.376;2023-05-02T10:28:25;94932.97;;;18.77;36.74
72308;BME280;60257;42.638;23.376;2023-05-02T10:30:52;94919.50;;;18.79;35.71
72308;BME280;60257;42.638;23.376;2023-05-02T10:33:19;94923.91;;;19.01;36.15
72308;BME280;60257;42.638;23.376;2023-05-02T10:35:45;94921.09;;;18.98;35.07
72308;BME280;60257;42.638;23.376;2023-05-02T10:38:13;94922.72;;;19.09;35.41
72308;BME280;60257;42.638;23.376;2023-05-02T10:40:41;94931.06;;;19.13;34.42
72308;BME280;60257;42.638;23.376;2023-05-02T10:43:14;94931.47;;;19.11;33.94
72308;BME280;60257;42.638;23.376;2023-05-02T10:45:40;94923.91;;;19.08;34.50
72308;BME280;60257;42.638;23.376;2023-05-02T10:48:23;94916.00;;;19.25;35.10
72308;BME280;60257;42.638;23.376;2023-05-02T10:50:56;94923.94;;;19.37;35.24
72308;BME280;60257;42.638;23.376;2023-05-02T10:53:25;94923.97;;;19.47;35.54
72308;BME280;60257;42.638;23.376;2023-05-02T10:58:35;94918.81;;;19.74;34.27
72308;BME280;60257;42.638;23.376;2023-05-02T11:04:08;94909.66;;;19.74;32.95
72308;BME280;60257;42.638;23.376;2023-05-02T11:06:35;94905.28;;;19.73;33.86
72308;BME280;60257;42.638;23.376;2023-05-02T11:11:43;94911.22;;;19.85;33.72
72308;BME280;60257;42.638;23.376;2023-05-02T11:14:10;94907.19;;;20.11;33.30
72308;BME280;60257;42.638;23.376;2023-05-02T11:24:51;94895.13;;;20.53;33.18
72308;BME280;60257;42.638;23.376;2023-05-02T11:33:09;94890.56;;;20.88;32.79
72308;BME280;60257;42.638;23.376;2023-05-02T11:35:24;94889.81;;;20.80;32.37
72308;BME280;60257;42.638;23.376;2023-05-02T11:37:56;94886.97;;;20.84;32.08
72308;BME280;60257;42.638;23.376;2023-05-02T11:40:26;94887.72;;;20.95;33.04
72308;BME280;60257;42.638;23.376;2023-05-02T11:42:53;94885.75;;;20.92;32.07
72308;BME280;60257;42.638;23.376;2023-05-02T11:45:18;94880.50;;;21.04;33.05
72308;BME280;60257;42.638;23.376;2023-05-02T11:47:46;94867.69;;;21.18;33.06
72308;BME280;60257;42.638;23.376;2023-05-02T11:50:13;94861.28;;;21.21;32.61
72308;BME280;60257;42.638;23.376;2023-05-02T11:52:43;94866.41;;;21.26;33.33
72308;BME280;60257;42.638;23.376;2023-05-02T11:55:13;94877.88;;;21.38;32.44
72308;BME280;60257;42.638;23.376;2023-05-02T11:57:39;94859.66;;;21.23;31.45
72308;BME280;60257;42.638;23.376;2023-05-02T12:00:06;94861.97;;;21.32;32.13
72308;BME280;60257;42.638;23.376;2023-05-02T12:02:39;94855.59;;;21.31;32.33
72308;BME280;60257;42.638;23.376;2023-05-02T12:05:06;94858.28;;;21.45;31.66
72308;BME280;60257;42.638;23.376;2023-05-02T12:07:43;94852.59;;;21.56;32.99
72308;BME280;60257;42.638;23.376;2023-05-02T12:10:10;94857.81;;;21.54;32.08
72308;BME280;60257;42.638;23.376;2023-05-02T12:12:37;94851.44;;;21.54;32.25
72308;BME280;60257;42.638;23.376;2023-05-02T12:15:04;94843.19;;;21.39;31.61
72308;BME280;60257;42.638;23.376;2023-05-02T12:17:36;94842.47;;;21.32;31.06
72308;BME280;60257;42.638;23.376;2023-05-02T12:20:04;94848.75;;;21.39;31.73
72308;BME280;60257;42.638;23.376;2023-05-02T12:22:31;94835.94;;;21.45;32.77
72308;BME280;60257;42.638;23.376;2023-05-02T12:24:57;94842.38;;;21.42;31.11
72308;BME280;60257;42.638;23.376;2023-05-02T12:27:22;94836.53;;;21.26;30.82
72308;BME280;60257;42.638;23.376;2023-05-02T12:29:48;94840.06;;;21.30;30.84
72308;BME280;60257;42.638;23.376;2023-05-02T12:32:14;94832.88;;;21.33;31.81
72308;BME280;60257;42.638;23.376;2023-05-02T12:34:50;94826.03;;;21.41;30.98
72308;BME280;60257;42.638;23.376;2023-05-02T12:37:21;94815.28;;;21.39;30.02
72308;BME280;60257;42.638;23.376;2023-05-02T12:39:48;94815.69;;;21.41;29.86
72308;BME280;60257;42.638;23.376;2023-05-02T12:42:16;94814.34;;;21.08;30.57
72308;BME280;60257;42.638;23.376;2023-05-02T12:44:44;94823.41;;;21.23;31.40
72308;BME280;60257;42.638;23.376;2023-05-02T12:47:11;94799.63;;;21.04;30.04
72308;BME280;60257;42.638;23.376;2023-05-02T12:49:55;94804.91;;;20.92;29.77
72308;BME280;60257;42.638;23.376;2023-05-02T12:52:48;94798.22;;;20.82;30.40
72308;BME280;60257;42.638;23.376;2023-05-02T12:55:19;94801.75;;;20.86;31.23
72308;BME280;60257;42.638;23.376;2023-05-02T12:57:46;94798.19;;;20.86;31.57
72308;BME280;60257;42.638;23.376;2023-05-02T13:00:12;94803.00;;;20.78;30.83
72308;BME280;60257;42.638;23.376;2023-05-02T13:02:37;94800.63;;;20.77;30.66
72308;BME280;60257;42.638;23.376;2023-05-02T13:05:21;94803.22;;;20.50;30.33
72308;BME280;60257;42.638;23.376;2023-05-02T13:07:47;94807.91;;;20.63;30.56
72308;BME280;60257;42.638;23.376;2023-05-02T13:10:12;94805.94;;;20.57;31.59
72308;BME280;60257;42.638;23.376;2023-05-02T13:12:38;94809.00;;;20.77;31.17
72308;BME280;60257;42.638;23.376;2023-05-02T13:15:05;94803.38;;;20.84;30.76
72308;BME280;60257;42.638;23.376;2023-05-02T13:17:31;94808.94;;;20.84;31.12
72308;BME280;60257;42.638;23.376;2023-05-02T13:19:57;94814.44;;;20.94;31.36
72308;BME280;60257;42.638;23.376;2023-05-02T13:22:23;94811.31;;;20.85;30.18
72308;BME280;60257;42.638;23.376;2023-05-02T13:24:48;94806.19;;;20.77;29.97
72308;BME280;60257;42.638;23.376;2023-05-02T13:27:14;94810.06;;;20.93;31.84
72308;BME280;60257;42.638;23.376;2023-05-02T13:29:45;94801.66;;;21.00;30.41
72308;BME280;60257;42.638;23.376;2023-05-02T13:32:11;94809.69;;;20.91;30.21
72308;BME280;60257;42.638;23.376;2023-05-02T13:34:36;94784.63;;;20.88;30.22